KAQP

Appleton Municipal Airport

Appleton, Minnesota, USA
METAR KAQP 201435Z AUTO 00000KT 10SM SCT013 21/17 A2992 RMK AO2
Observed Flight Rules
Jul-20 @ 14:35 UTC (9 minutes ago) Visual Flight Rules
Visibility Clouds
10 miles
  • Scattered at 1,300' AGL
Temperatures Readings
Current 21°C / 70°F
Dewpoint 17°C / 63°F
Humidity 78%
Altimeter 29.92" Hg
Pressure 1013 hPa
Elevation 311
METAR KAQP 201435Z AUTO 00000KT 10SM SCT013 21/17 A2992 RMK AO2
Observed Flight Rules
Jul-20 @ 14:35 UTC
(9 minutes ago)
VFR
Clouds
  • Scattered at 1,300' AGL
Temperature Dewpoint
21°C / 70°F 17°C / 63°F
Humidity Altimeter Pressure
78% 29.92" Hg 1013 hPa